Salina Municipal Airport
KSLN : now visible

Airfield :











YOU CAN JOIN US ON...

 
LOGIN :

Register | Disclaimer

   EN    FR    IT 

 









Legend :    VFR   Marginal VFR   IFR   Intensive IFR   Very Intensive IFR
Visi :
Ceiling :
>= 8 km
>= 3000ft
5 to 8 km
1000 to 3000 ft
1500m to 5 km
500 to 1000 ft
800 to 1500m
200 to 500 ft
< 800m
< 200 ft
Symbols :   Thunderstorms  Fog  Heavy snow  Heavy precipitations  Wind > 20 kt






- Airport Elevation : 1288 ft
- IATA code : SLN


KSLN - Salina Municipal

CURRENT METAR :
  • 291153Z 18005KT 10SM CLR 17/14 A3018 RMK AO2 SLP209 T01670139 10200 20156 53009

EXPIRED METARs :
  • 291053Z AUTO 19005KT 10SM CLR 16/13 A3017 RMK AO2 SLP204 T01610133
  • 290953Z AUTO 18006KT 10SM CLR 17/13 A3016 RMK AO2 SLP200 T01670133

TAF KSLN
Valid from the 29 at 12:00 until the 30 at 12:00 UTC


291124Z 2912/3012 19007KT P6SM SKC
FM291800 18016G23KT P6SM SKC
FM300100 16012KT P6SM SKC
KZKC FIR / North America



MET'MAP, your aeronautical weather chart ! - Copyright ORBIFLY December 2007 - Disclaimer

ORBIFLY MET'MAP TEAM :

Programming & Development : Alexandra Zaïnal
Original concept : Baudouin d'Aumeries
Technical & hardware support : Manuel Goepfert
Assistance : Marc-Olivier Méhu




SOURCES & CREDITS :

   NOAA       Earth
Advisory